Time;durP1;ratioP1;P1;durP2;ratioP2;P2;SDS_P1;SDS_P2;PMS_P1;PMS_P2;Temp;Humidity;BMP_temperature;BMP_pressure;BME280_temperature;BME280_humidity;BME280_pressure;Samples;Min_cycle;Max_cycle;Signal;HPM_P1;HPM_P2
2021/04/28 00:00:06;;;;;;;4.07;2.67;;;6.60;58.60;;;;;;5028761;28;20522;-44
2021/04/28 00:02:31;;;;;;;4.97;2.80;;;6.50;59.40;;;;;;5027972;28;20029;-44
2021/04/28 00:04:57;;;;;;;4.80;2.45;;;6.50;58.80;;;;;;5028448;28;20064;-43
2021/04/28 00:07:23;;;;;;;6.22;2.70;;;6.50;59.10;;;;;;5027295;28;20490;-45
2021/04/28 00:09:48;;;;;;;4.40;2.70;;;6.50;58.60;;;;;;5027965;28;20042;-44
2021/04/28 00:12:13;;;;;;;4.10;2.42;;;6.40;60.00;;;;;;5027597;28;20029;-44
2021/04/28 00:14:39;;;;;;;3.78;2.22;;;6.50;59.20;;;;;;5028471;28;20029;-46
2021/04/28 00:17:05;;;;;;;6.03;2.72;;;6.40;59.70;;;;;;5027019;28;20597;-43
2021/04/28 00:19:31;;;;;;;3.95;2.90;;;6.40;61.10;;;;;;5028216;28;20506;-44
2021/04/28 00:21:56;;;;;;;4.57;2.50;;;6.30;60.90;;;;;;5032664;28;20041;-43
2021/04/28 00:24:22;;;;;;;4.75;2.70;;;6.40;59.60;;;;;;5032598;28;20036;-43
2021/04/28 00:26:47;;;;;;;3.25;2.20;;;6.40;59.30;;;;;;5032491;28;20021;-43
2021/04/28 00:29:13;;;;;;;6.97;3.03;;;6.30;58.70;;;;;;5031396;28;20040;-44
2021/04/28 00:31:38;;;;;;;6.88;2.60;;;6.30;59.60;;;;;;5031718;28;20037;-44
2021/04/28 00:34:04;;;;;;;6.03;2.63;;;6.30;59.70;;;;;;5032536;28;20017;-44
2021/04/28 00:36:29;;;;;;;5.72;2.42;;;6.30;59.60;;;;;;5032716;28;20018;-45
2021/04/28 00:38:55;;;;;;;5.30;2.45;;;6.30;59.20;;;;;;5031147;28;20026;-44
2021/04/28 00:41:21;;;;;;;10.55;2.88;;;6.30;60.10;;;;;;5031917;28;20041;-43
2021/04/28 00:43:47;;;;;;;5.85;2.60;;;6.20;59.90;;;;;;5031603;28;20045;-44
2021/04/28 00:46:13;;;;;;;3.35;2.85;;;6.20;60.10;;;;;;5032040;28;20577;-44
2021/04/28 00:48:39;;;;;;;7.57;2.85;;;6.20;60.50;;;;;;5031176;28;20068;-44
2021/04/28 00:51:05;;;;;;;6.45;3.10;;;6.20;60.00;;;;;;5031757;28;20057;-46
2021/04/28 00:53:31;;;;;;;7.10;2.78;;;6.20;60.20;;;;;;5031749;28;20549;-44
2021/04/28 00:55:58;;;;;;;4.93;2.85;;;6.20;60.80;;;;;;5031952;28;20022;-45
2021/04/28 00:58:25;;;;;;;6.75;2.67;;;6.10;60.60;;;;;;5031662;28;20037;-44
2021/04/28 01:00:51;;;;;;;6.15;3.10;;;6.10;60.50;;;;;;5031125;28;20434;-45
2021/04/28 01:03:22;;;;;;;9.45;2.97;;;6.10;60.90;;;;;;5031853;28;20467;-44
2021/04/28 01:05:51;;;;;;;5.10;2.97;;;6.10;61.30;;;;;;5031108;28;20057;-44
2021/04/28 01:08:17;;;;;;;5.18;2.67;;;6.00;62.40;;;;;;5031147;28;20025;-44
2021/04/28 01:10:44;;;;;;;9.55;3.72;;;6.00;61.60;;;;;;5030726;28;20486;-44
2021/04/28 01:13:09;;;;;;;5.25;3.03;;;5.90;62.90;;;;;;5031504;28;20025;-44
2021/04/28 01:15:35;;;;;;;4.35;2.63;;;5.90;62.00;;;;;;5030648;28;20151;-44
2021/04/28 01:18:02;;;;;;;4.63;2.50;;;5.90;65.00;;;;;;5030690;28;20204;-45
2021/04/28 01:20:32;;;;;;;4.82;2.78;;;5.80;63.80;;;;;;5031370;28;20022;-43
2021/04/28 01:22:57;;;;;;;8.55;2.97;;;5.80;62.20;;;;;;5027697;28;20569;-43
2021/04/28 01:25:25;;;;;;;6.03;2.72;;;5.80;62.80;;;;;;5030037;28;20037;-44
2021/04/28 01:27:57;;;;;;;4.10;2.80;;;5.80;62.90;;;;;;5029819;28;20033;-44
2021/04/28 01:30:27;;;;;;;7.90;3.05;;;5.80;62.00;;;;;;5030755;28;20252;-44
2021/04/28 01:32:55;;;;;;;5.40;3.47;;;5.80;62.00;;;;;;5026027;28;20022;-43
2021/04/28 01:35:24;;;;;;;5.57;2.83;;;5.70;63.30;;;;;;5011223;28;20030;-44
2021/04/28 01:37:49;;;;;;;4.75;2.85;;;5.70;63.90;;;;;;5022976;28;20491;-44
2021/04/28 01:40:17;;;;;;;4.63;2.70;;;5.70;63.60;;;;;;5030956;28;20032;-43
2021/04/28 01:42:44;;;;;;;8.30;3.72;;;5.70;63.80;;;;;;5030283;28;20025;-43
2021/04/28 01:45:12;;;;;;;3.58;2.75;;;5.60;64.80;;;;;;5026227;28;20057;-47
2021/04/28 01:47:40;;;;;;;6.25;3.63;;;5.60;65.50;;;;;;5010484;28;20443;-44
2021/04/28 01:50:07;;;;;;;6.00;3.38;;;5.60;65.50;;;;;;5029516;28;20037;-44
2021/04/28 01:52:33;;;;;;;6.68;3.33;;;5.50;65.20;;;;;;5030818;28;20064;-44
2021/04/28 01:54:59;;;;;;;6.07;3.28;;;5.50;66.30;;;;;;5030771;28;20115;-44
2021/04/28 01:57:26;;;;;;;5.88;3.33;;;5.40;65.20;;;;;;5030377;28;20364;-44
2021/04/28 01:59:52;;;;;;;6.22;3.10;;;5.40;65.60;;;;;;5029981;28;20223;-46
2021/04/28 02:02:18;;;;;;;5.53;3.50;;;5.40;65.00;;;;;;5030875;28;20483;-43
2021/04/28 02:04:44;;;;;;;9.10;3.63;;;5.40;66.00;;;;;;5030346;28;20048;-43
2021/04/28 02:07:10;;;;;;;3.95;3.03;;;5.40;66.60;;;;;;5029694;28;20032;-44
2021/04/28 02:09:36;;;;;;;6.28;4.00;;;5.30;65.50;;;;;;5029849;28;20046;-43
2021/04/28 02:12:02;;;;;;;6.57;3.63;;;5.30;66.40;;;;;;5029938;28;20021;-43
2021/04/28 02:14:30;;;;;;;4.05;2.85;;;5.30;66.60;;;;;;5030070;28;20113;-44
2021/04/28 02:16:56;;;;;;;8.00;3.92;;;5.30;67.40;;;;;;5029797;28;20017;-44
2021/04/28 02:19:22;;;;;;;5.90;3.15;;;5.30;66.90;;;;;;5029647;28;20029;-45
2021/04/28 02:21:50;;;;;;;4.05;3.20;;;5.30;67.90;;;;;;5029166;28;20044;-44
2021/04/28 02:24:17;;;;;;;8.25;3.00;;;5.30;67.20;;;;;;5029728;28;20052;-45
2021/04/28 02:26:44;;;;;;;4.50;3.25;;;5.20;68.00;;;;;;5030045;28;20421;-44
2021/04/28 02:29:10;;;;;;;5.25;3.25;;;5.20;67.50;;;;;;5028092;28;20113;-45
2021/04/28 02:31:37;;;;;;;6.30;3.30;;;5.20;68.40;;;;;;5030182;28;20060;-44
2021/04/28 02:34:04;;;;;;;7.85;3.53;;;5.20;67.60;;;;;;5029659;28;20032;-43
2021/04/28 02:36:36;;;;;;;4.97;3.20;;;5.20;68.10;;;;;;5030352;28;20399;-43
2021/04/28 02:39:16;;;;;;;5.22;3.50;;;5.20;67.60;;;;;;5029315;28;20091;-45
2021/04/28 02:41:46;;;;;;;7.13;3.28;;;5.20;68.00;;;;;;5029476;28;20029;-44
2021/04/28 02:44:16;;;;;;;5.30;3.45;;;5.10;68.20;;;;;;5028920;28;20037;-43
2021/04/28 02:46:42;;;;;;;5.75;3.65;;;5.20;68.10;;;;;;5028663;28;20034;-43
2021/04/28 02:49:09;;;;;;;6.20;3.50;;;5.10;68.90;;;;;;5029008;28;20029;-43
2021/04/28 02:51:37;;;;;;;3.95;3.38;;;5.10;69.30;;;;;;5028354;28;20022;-44
2021/04/28 02:54:04;;;;;;;7.15;3.90;;;5.10;68.60;;;;;;5028436;28;20105;-44
2021/04/28 02:56:31;;;;;;;6.93;3.55;;;5.00;69.10;;;;;;5027945;28;20087;-43
2021/04/28 02:58:59;;;;;;;5.18;3.50;;;5.00;71.20;;;;;;5028507;28;20099;-44
2021/04/28 03:01:25;;;;;;;6.20;3.15;;;5.00;70.40;;;;;;5029536;28;20022;-44
2021/04/28 03:03:53;;;;;;;6.90;3.58;;;4.90;69.90;;;;;;5028858;28;20017;-43
2021/04/28 03:06:18;;;;;;;6.68;3.45;;;4.90;70.30;;;;;;5028096;28;20021;-44
2021/04/28 03:08:46;;;;;;;4.88;3.28;;;4.90;70.30;;;;;;5028526;28;20117;-44
2021/04/28 03:11:13;;;;;;;7.93;3.40;;;4.90;70.70;;;;;;5029195;28;20022;-43
2021/04/28 03:13:41;;;;;;;7.40;3.92;;;4.90;70.80;;;;;;5028596;28;20387;-44
2021/04/28 03:16:08;;;;;;;6.15;3.88;;;4.90;71.20;;;;;;5029107;28;20048;-43
2021/04/28 03:18:34;;;;;;;7.22;3.65;;;4.80;72.30;;;;;;5027217;28;20129;-43
2021/04/28 03:21:01;;;;;;;6.60;4.10;;;4.80;72.30;;;;;;5029331;28;20022;-43
2021/04/28 03:23:27;;;;;;;7.95;3.50;;;4.80;72.50;;;;;;5029109;28;20368;-44
2021/04/28 03:25:52;;;;;;;9.63;3.70;;;4.80;72.40;;;;;;5028731;28;20039;-43
2021/04/28 03:28:18;;;;;;;7.45;3.97;;;4.80;73.00;;;;;;5027357;28;20033;-43
2021/04/28 03:30:43;;;;;;;6.82;3.70;;;4.70;73.50;;;;;;5028815;28;20029;-44
2021/04/28 03:33:09;;;;;;;7.65;3.67;;;4.70;73.80;;;;;;5028282;28;20482;-45
2021/04/28 03:35:35;;;;;;;6.00;3.60;;;4.60;74.40;;;;;;5028748;28;20037;-43
2021/04/28 03:38:00;;;;;;;6.97;4.05;;;4.60;75.00;;;;;;5028174;28;20076;-44
2021/04/28 03:40:26;;;;;;;6.03;3.60;;;4.50;75.70;;;;;;5028963;28;20422;-44
2021/04/28 03:42:52;;;;;;;7.90;4.03;;;4.50;77.50;;;;;;5028487;28;20044;-43
2021/04/28 03:45:17;;;;;;;8.45;4.00;;;4.50;77.00;;;;;;5029177;28;20033;-43
2021/04/28 03:47:43;;;;;;;8.48;3.90;;;4.50;76.70;;;;;;5028226;28;20180;-43
2021/04/28 03:50:10;;;;;;;12.15;4.43;;;4.50;78.60;;;;;;5028094;28;20029;-43
2021/04/28 03:52:37;;;;;;;7.15;3.70;;;4.40;79.50;;;;;;5028815;28;20471;-44
2021/04/28 03:55:04;;;;;;;9.15;4.55;;;4.40;81.00;;;;;;5028957;28;20087;-44
2021/04/28 03:57:29;;;;;;;8.40;4.10;;;4.30;84.30;;;;;;5027352;28;20066;-43
2021/04/28 03:59:55;;;;;;;5.28;3.70;;;4.30;83.40;;;;;;5028911;28;20036;-45
2021/04/28 04:02:20;;;;;;;6.15;4.10;;;4.30;83.30;;;;;;5028955;28;20052;-44
2021/04/28 04:04:46;;;;;;;8.73;3.88;;;4.30;86.40;;;;;;5008639;28;20295;-43
2021/04/28 04:07:11;;;;;;;7.25;4.13;;;4.30;85.70;;;;;;5012605;28;20411;-45
2021/04/28 04:09:36;;;;;;;11.95;4.10;;;4.30;89.60;;;;;;5009514;28;20168;-43
2021/04/28 04:12:02;;;;;;;9.40;4.10;;;4.20;89.40;;;;;;5008788;28;20472;-45
2021/04/28 04:14:28;;;;;;;8.68;4.40;;;4.20;90.50;;;;;;5008844;28;20104;-44
2021/04/28 04:16:53;;;;;;;8.70;4.25;;;4.20;91.60;;;;;;5025636;28;20026;-43
2021/04/28 04:19:19;;;;;;;6.88;4.20;;;4.20;90.60;;;;;;5027437;28;20503;-43
2021/04/28 04:21:44;;;;;;;8.48;4.30;;;4.20;91.20;;;;;;5028055;28;20078;-44
2021/04/28 04:24:10;;;;;;;8.55;4.72;;;4.20;90.40;;;;;;5026993;28;20104;-43
2021/04/28 04:26:35;;;;;;;9.55;5.18;;;4.30;90.30;;;;;;5027926;28;20022;-43
2021/04/28 04:29:03;;;;;;;5.78;4.10;;;4.20;90.50;;;;;;5027097;28;20029;-44
2021/04/28 04:31:28;;;;;;;9.48;5.13;;;4.20;90.70;;;;;;5027038;28;20029;-43
2021/04/28 04:33:54;;;;;;;9.10;4.90;;;4.20;92.00;;;;;;5027777;28;20033;-46
2021/04/28 04:36:19;;;;;;;9.45;5.63;;;4.20;92.00;;;;;;5025969;28;20013;-43
2021/04/28 04:38:45;;;;;;;9.05;5.05;;;4.20;93.20;;;;;;5026598;28;20216;-44
2021/04/28 04:41:10;;;;;;;12.43;4.95;;;4.10;93.00;;;;;;5027789;28;20398;-44
2021/04/28 04:43:36;;;;;;;10.65;4.80;;;4.20;93.40;;;;;;5026678;28;20034;-44
2021/04/28 04:46:01;;;;;;;13.20;5.47;;;4.20;93.10;;;;;;5027415;28;20036;-43
2021/04/28 04:48:27;;;;;;;11.68;5.20;;;4.20;92.20;;;;;;5026964;28;20033;-44
2021/04/28 04:50:52;;;;;;;9.98;4.97;;;4.20;93.70;;;;;;5027367;28;20526;-46
2021/04/28 04:53:19;;;;;;;9.82;4.93;;;4.20;92.50;;;;;;5027521;28;20076;-43
2021/04/28 04:55:44;;;;;;;11.35;4.85;;;4.30;92.60;;;;;;5027392;28;20063;-44
2021/04/28 04:58:10;;;;;;;10.30;5.03;;;4.30;92.90;;;;;;5026648;28;20836;-44
2021/04/28 05:00:35;;;;;;;12.27;4.78;;;4.20;94.50;;;;;;5026452;28;20038;-43
2021/04/28 05:03:01;;;;;;;8.48;4.80;;;4.30;94.50;;;;;;5027880;28;20025;-44
2021/04/28 05:05:26;;;;;;;7.97;4.95;;;4.30;95.30;;;;;;5027773;28;20129;-44
2021/04/28 05:07:53;;;;;;;8.02;4.78;;;4.30;93.80;;;;;;5029390;28;20033;-44
2021/04/28 05:10:18;;;;;;;9.82;5.40;;;4.40;92.90;;;;;;5029277;28;20017;-43
2021/04/28 05:12:46;;;;;;;7.85;4.60;;;4.40;93.60;;;;;;5030779;28;20356;-43
2021/04/28 05:15:14;;;;;;;12.85;6.00;;;4.40;93.80;;;;;;5029486;28;20399;-44
2021/04/28 05:17:40;;;;;;;8.93;5.43;;;4.40;93.90;;;;;;5030365;28;20038;-44
2021/04/28 05:20:06;;;;;;;9.20;5.22;;;4.50;93.50;;;;;;5030536;28;20518;-44
2021/04/28 05:22:32;;;;;;;8.57;5.28;;;4.50;93.70;;;;;;5029027;28;20108;-44
2021/04/28 05:24:57;;;;;;;14.00;6.15;;;4.60;93.00;;;;;;5031615;28;20049;-43
2021/04/28 05:27:25;;;;;;;13.48;6.47;;;4.60;93.10;;;;;;5029475;28;20029;-44
2021/04/28 05:29:52;;;;;;;11.35;6.20;;;4.70;92.20;;;;;;5029248;28;20025;-45
2021/04/28 05:32:18;;;;;;;12.15;5.60;;;4.70;92.60;;;;;;5029238;28;20037;-44
2021/04/28 05:34:44;;;;;;;11.40;5.93;;;4.70;91.70;;;;;;5029730;28;20123;-44
2021/04/28 05:37:12;;;;;;;7.72;4.93;;;4.90;91.50;;;;;;5031091;28;20387;-44
2021/04/28 05:39:41;;;;;;;9.50;5.45;;;4.90;91.00;;;;;;5030770;28;20127;-46
2021/04/28 05:42:07;;;;;;;10.70;5.90;;;5.00;90.80;;;;;;5030831;28;20043;-44
2021/04/28 05:44:33;;;;;;;15.50;6.10;;;5.10;90.20;;;;;;5028321;28;20030;-44
2021/04/28 05:46:59;;;;;;;12.45;5.38;;;5.10;90.40;;;;;;5029611;28;20499;-46
2021/04/28 05:49:24;;;;;;;12.20;6.00;;;5.20;90.40;;;;;;5028349;28;20128;-45
2021/04/28 05:51:50;;;;;;;22.23;6.50;;;5.20;90.00;;;;;;5029368;28;20104;-45
2021/04/28 05:54:15;;;;;;;11.00;5.63;;;5.20;90.40;;;;;;5030494;28;20045;-47
2021/04/28 05:56:42;;;;;;;9.18;5.72;;;5.20;90.40;;;;;;5036760;28;20112;-46
2021/04/28 05:59:08;;;;;;;16.52;5.82;;;5.30;89.70;;;;;;5030929;28;20108;-46
2021/04/28 06:01:34;;;;;;;10.43;6.15;;;5.30;89.80;;;;;;5030238;28;20104;-45
2021/04/28 06:04:00;;;;;;;10.38;5.72;;;5.30;90.20;;;;;;5029236;28;20211;-46
2021/04/28 06:06:26;;;;;;;10.38;6.30;;;5.40;89.90;;;;;;5031380;28;20475;-45
2021/04/28 06:08:52;;;;;;;14.18;5.95;;;5.50;89.70;;;;;;5029370;28;20463;-46
2021/04/28 06:11:18;;;;;;;10.05;6.10;;;5.50;89.90;;;;;;5029106;28;20126;-45
2021/04/28 06:13:46;;;;;;;8.75;5.22;;;5.60;88.40;;;;;;5030041;28;20256;-47
2021/04/28 06:16:11;;;;;;;15.77;6.15;;;5.70;88.30;;;;;;5030416;28;20032;-47
2021/04/28 06:18:37;;;;;;;12.70;6.72;;;5.80;86.80;;;;;;5027280;28;20029;-45
2021/04/28 06:21:04;;;;;;;14.52;6.20;;;5.90;86.90;;;;;;5030338;28;20068;-46
2021/04/28 06:23:29;;;;;;;15.00;6.70;;;5.90;86.50;;;;;;5027807;28;20033;-45
2021/04/28 06:25:55;;;;;;;12.15;6.70;;;6.10;84.60;;;;;;5028849;28;20453;-46
2021/04/28 06:28:20;;;;;;;14.52;6.07;;;6.10;85.00;;;;;;5027594;28;20032;-48
2021/04/28 06:30:46;;;;;;;9.70;6.20;;;6.20;83.60;;;;;;5029445;28;20041;-47
2021/04/28 06:33:11;;;;;;;13.73;5.95;;;6.20;84.30;;;;;;5029343;28;20557;-45
2021/04/28 06:35:37;;;;;;;11.95;6.53;;;6.30;85.10;;;;;;5027839;28;20041;-45
2021/04/28 06:38:02;;;;;;;10.60;5.88;;;6.40;83.00;;;;;;5027666;28;20490;-46
2021/04/28 06:40:28;;;;;;;10.50;6.75;;;6.50;82.10;;;;;;5028399;28;20013;-46
2021/04/28 06:42:54;;;;;;;8.50;5.88;;;6.60;82.70;;;;;;5023729;28;20049;-45
2021/04/28 06:45:19;;;;;;;8.35;5.32;;;6.60;82.80;;;;;;5026426;28;20506;-47
2021/04/28 06:47:46;;;;;;;9.07;6.15;;;6.80;82.10;;;;;;5025581;28;20398;-46
2021/04/28 06:50:12;;;;;;;8.32;5.75;;;6.80;82.20;;;;;;5025165;28;20466;-46
2021/04/28 06:52:42;;;;;;;8.65;5.85;;;6.90;81.00;;;;;;5025681;28;20036;-46
2021/04/28 06:55:09;;;;;;;11.43;6.00;;;7.00;81.90;;;;;;5027469;28;20018;-46
2021/04/28 06:57:34;;;;;;;9.75;6.13;;;7.20;79.40;;;;;;5028092;28;20095;-45
2021/04/28 07:00:00;;;;;;;9.82;6.20;;;7.20;80.70;;;;;;5028202;28;20667;-46
2021/04/28 07:02:25;;;;;;;13.88;6.20;;;7.30;79.90;;;;;;5027595;28;20399;-47
2021/04/28 07:04:52;;;;;;;11.75;6.18;;;7.50;76.80;;;;;;5029413;28;20029;-44
2021/04/28 07:07:17;;;;;;;10.95;6.65;;;7.60;76.30;;;;;;5027496;28;20025;-45
2021/04/28 07:09:44;;;;;;;13.52;6.75;;;7.80;76.20;;;;;;5029374;28;20037;-45
2021/04/28 07:12:10;;;;;;;10.20;6.13;;;7.90;74.60;;;;;;5027160;28;20498;-45
2021/04/28 07:14:36;;;;;;;13.02;6.22;;;7.90;74.40;;;;;;5025791;28;20093;-44
2021/04/28 07:17:01;;;;;;;9.57;5.65;;;8.00;74.90;;;;;;5028131;28;20475;-46
2021/04/28 07:19:27;;;;;;;11.25;6.07;;;8.20;75.50;;;;;;5027817;28;20029;-47
2021/04/28 07:21:52;;;;;;;11.60;6.72;;;8.40;72.40;;;;;;5030500;28;20130;-47
2021/04/28 07:24:17;;;;;;;10.45;5.65;;;8.40;72.90;;;;;;5026281;28;20116;-49
2021/04/28 07:26:43;;;;;;;12.85;6.38;;;8.40;73.90;;;;;;5029817;28;20025;-46
2021/04/28 07:29:08;;;;;;;9.65;6.20;;;8.60;73.40;;;;;;5029772;28;20025;-46
2021/04/28 07:31:34;;;;;;;13.57;6.18;;;8.70;72.10;;;;;;5028166;28;20033;-46
2021/04/28 07:34:00;;;;;;;11.93;6.63;;;8.90;70.70;;;;;;5028021;28;20022;-46
2021/04/28 07:36:27;;;;;;;12.88;7.15;;;9.00;71.70;;;;;;5028232;28;20123;-47
2021/04/28 07:38:52;;;;;;;11.65;6.50;;;9.10;70.00;;;;;;5025926;28;20021;-46
2021/04/28 07:41:18;;;;;;;9.73;6.40;;;9.30;70.20;;;;;;5027471;28;20703;-46
2021/04/28 07:43:44;;;;;;;8.27;5.50;;;9.40;69.70;;;;;;5024428;28;20018;-46
2021/04/28 07:46:10;;;;;;;11.23;6.43;;;9.60;68.80;;;;;;5027601;28;20108;-46
2021/04/28 07:48:36;;;;;;;10.23;6.25;;;9.90;69.70;;;;;;5027282;28;20112;-48
2021/04/28 07:51:01;;;;;;;8.95;6.05;;;10.00;67.10;;;;;;5028881;28;20032;-46
2021/04/28 07:53:28;;;;;;;11.43;6.47;;;10.20;67.80;;;;;;5028243;28;20033;-45
2021/04/28 07:55:54;;;;;;;11.07;6.10;;;10.40;67.70;;;;;;5027553;28;20036;-48
2021/04/28 07:58:19;;;;;;;10.68;6.68;;;10.60;65.30;;;;;;5026965;28;20026;-47
2021/04/28 08:00:46;;;;;;;11.05;6.75;;;10.90;63.80;;;;;;5026192;28;20045;-46
2021/04/28 08:03:12;;;;;;;9.63;6.60;;;11.10;64.00;;;;;;5027617;28;20036;-46
2021/04/28 08:05:37;;;;;;;10.98;6.72;;;11.40;65.90;;;;;;5027337;28;20025;-47
2021/04/28 08:08:04;;;;;;;12.63;7.97;;;11.60;63.30;;;;;;5024943;28;20344;-47
2021/04/28 08:10:30;;;;;;;11.25;6.57;;;12.20;61.10;;;;;;5024180;28;20029;-48
2021/04/28 08:12:55;;;;;;;10.75;6.85;;;12.60;60.90;;;;;;5026387;28;20017;-46
2021/04/28 08:15:21;;;;;;;10.60;6.57;;;13.60;57.80;;;;;;5027302;28;20112;-46
2021/04/28 08:17:47;;;;;;;10.35;5.97;;;14.90;57.10;;;;;;5026101;28;20128;-46
2021/04/28 08:20:14;;;;;;;8.60;6.30;;;16.10;52.20;;;;;;5026289;28;20032;-48
2021/04/28 08:22:40;;;;;;;6.47;5.35;;;17.80;51.10;;;;;;5026401;28;20021;-49
2021/04/28 08:25:08;;;;;;;10.60;6.57;;;19.20;45.80;;;;;;5027132;28;20040;-49
2021/04/28 08:27:34;;;;;;;10.68;5.88;;;21.20;38.50;;;;;;5022607;28;20087;-52
2021/04/28 08:30:00;;;;;;;7.75;5.80;;;21.80;38.10;;;;;;5024086;28;20787;-52
2021/04/28 08:32:27;;;;;;;7.90;6.10;;;22.60;36.00;;;;;;5026754;28;20091;-52
2021/04/28 08:34:53;;;;;;;11.73;5.85;;;22.80;36.80;;;;;;5028230;28;20048;-53
2021/04/28 08:37:19;;;;;;;10.95;5.88;;;23.00;34.60;;;;;;5018385;28;20018;-53
2021/04/28 08:39:46;;;;;;;13.52;6.68;;;22.80;35.40;;;;;;5027443;28;20017;-53
2021/04/28 08:42:11;;;;;;;14.65;6.70;;;23.90;34.00;;;;;;5030153;28;20075;-54
2021/04/28 08:44:39;;;;;;;13.07;6.40;;;25.10;32.20;;;;;;5028587;28;20030;-53
2021/04/28 08:47:04;;;;;;;9.50;6.35;;;25.40;31.20;;;;;;5027778;28;20149;-54
2021/04/28 08:49:30;;;;;;;11.85;6.35;;;26.30;30.60;;;;;;5028952;28;20025;-53
2021/04/28 08:51:55;;;;;;;8.15;5.63;;;26.20;31.80;;;;;;5030306;28;20075;-53
2021/04/28 08:54:23;;;;;;;9.90;7.40;;;26.10;31.40;;;;;;5011811;28;20276;-54
2021/04/28 08:56:54;;;;;;;9.32;7.20;;;27.80;30.00;;;;;;5045162;28;20142;-53
2021/04/28 08:59:20;;;;;;;10.13;6.53;;;28.40;29.60;;;;;;5027566;28;20061;-53
2021/04/28 09:01:47;;;;;;;7.75;6.25;;;27.70;29.80;;;;;;5028690;28;20552;-54
2021/04/28 09:04:19;;;;;;;14.07;6.53;;;29.20;28.90;;;;;;5030644;28;20034;-52
2021/04/28 09:06:47;;;;;;;11.20;6.32;;;29.80;28.70;;;;;;5030485;28;20029;-54
2021/04/28 09:09:14;;;;;;;11.02;7.47;;;28.70;29.10;;;;;;5030472;28;20028;-53
2021/04/28 09:11:44;;;;;;;14.63;7.40;;;28.40;28.30;;;;;;5030150;28;20017;-53
2021/04/28 09:14:22;;;;;;;10.65;7.43;;;29.30;28.10;;;;;;5028914;28;20052;-53
2021/04/28 09:16:53;;;;;;;9.30;6.45;;;29.60;27.90;;;;;;5027571;28;20030;-54
2021/04/28 09:19:21;;;;;;;9.88;7.38;;;29.10;29.10;;;;;;5030282;28;20032;-53
2021/04/28 09:21:59;;;;;;;17.60;7.90;;;29.60;28.00;;;;;;5026741;28;20033;-54
2021/04/28 09:24:36;;;;;;;9.45;6.50;;;29.70;28.20;;;;;;5030736;28;20325;-54
2021/04/28 09:27:03;;;;;;;8.65;7.10;;;29.90;28.20;;;;;;5017371;28;20403;-53
2021/04/28 09:29:31;;;;;;;9.32;8.13;;;30.00;28.60;;;;;;5029329;28;20034;-54
2021/04/28 09:31:58;;;;;;;12.68;8.32;;;30.20;28.20;;;;;;5030830;28;20120;-53
2021/04/28 09:34:26;;;;;;;14.13;8.30;;;30.90;27.20;;;;;;5026570;28;20026;-53
2021/04/28 09:37:05;;;;;;;11.48;8.98;;;29.90;27.50;;;;;;5028415;28;20033;-54
2021/04/28 09:39:30;;;;;;;15.40;9.35;;;30.80;27.20;;;;;;5030139;28;20467;-53
2021/04/28 09:41:57;;;;;;;11.75;9.00;;;31.00;27.20;;;;;;5030891;28;20163;-53
2021/04/28 09:44:34;;;;;;;14.73;9.05;;;31.20;27.10;;;;;;5030368;28;20109;-54
2021/04/28 09:46:59;;;;;;;14.65;9.05;;;30.60;28.20;;;;;;5030247;28;20033;-53
2021/04/28 09:49:40;;;;;;;11.18;8.43;;;29.50;28.10;;;;;;5028599;28;20025;-53
2021/04/28 09:52:07;;;;;;;14.77;8.68;;;29.90;28.30;;;;;;5025439;28;20022;-54
2021/04/28 09:54:32;;;;;;;9.88;8.52;;;31.00;28.20;;;;;;5017218;28;20018;-53
2021/04/28 09:56:58;;;;;;;12.35;8.45;;;31.40;27.80;;;;;;5030721;28;20159;-54
2021/04/28 09:59:45;;;;;;;14.13;9.50;;;31.50;28.00;;;;;;5029675;28;20037;-53
2021/04/28 10:02:33;;;;;;;10.65;8.73;;;32.00;27.30;;;;;;5030091;28;20033;-53
2021/04/28 10:05:22;;;;;;;12.60;9.07;;;31.60;27.20;;;;;;5028920;28;20033;-54
2021/04/28 10:07:48;;;;;;;11.23;8.70;;;31.40;27.20;;;;;;5029303;28;20116;-54
2021/04/28 10:10:15;;;;;;;13.70;9.32;;;31.70;28.50;;;;;;5030578;28;20021;-53
2021/04/28 10:12:41;;;;;;;14.20;9.52;;;31.60;27.20;;;;;;5029532;28;20025;-47
2021/04/28 10:15:08;;;;;;;12.55;9.77;;;31.80;27.30;;;;;;5028213;28;20132;-47
2021/04/28 10:17:37;;;;;;;10.05;8.77;;;32.70;27.60;;;;;;5029419;28;20037;-47
2021/04/28 10:20:05;;;;;;;11.63;9.57;;;32.80;27.50;;;;;;5030107;28;20061;-47
2021/04/28 10:22:32;;;;;;;12.85;9.15;;;33.50;26.60;;;;;;5029412;28;20272;-48
2021/04/28 10:24:59;;;;;;;11.88;9.23;;;33.50;26.90;;;;;;5030028;28;20083;-47
2021/04/28 10:27:26;;;;;;;13.48;10.10;;;34.20;26.70;;;;;;5028477;28;20105;-49
2021/04/28 10:29:53;;;;;;;16.33;9.38;;;34.20;25.90;;;;;;5029139;28;20045;-48
2021/04/28 10:32:21;;;;;;;12.98;9.63;;;33.30;26.30;;;;;;5029100;28;20040;-47
2021/04/28 10:34:50;;;;;;;15.32;9.38;;;33.80;26.40;;;;;;5026499;28;20025;-47
2021/04/28 10:37:18;;;;;;;;;;;34.10;26.30;;;;;;5028590;28;20021;-47
2021/04/28 10:39:47;;;;;;;12.55;9.88;;;33.50;25.40;;;;;;5029073;28;19916;-47
2021/04/28 10:42:27;;;;;;;14.70;9.77;;;33.30;26.00;;;;;;5029348;28;20286;-46
2021/04/28 10:44:53;;;;;;;18.17;10.40;;;33.30;26.00;;;;;;5022783;28;20552;-47
2021/04/28 10:47:19;;;;;;;11.95;9.30;;;32.40;26.00;;;;;;5028702;28;20025;-47
2021/04/28 10:50:08;;;;;;;16.23;10.15;;;32.50;27.10;;;;;;5024167;28;20482;-47
2021/04/28 10:52:35;;;;;;;14.35;9.18;;;33.10;25.60;;;;;;5030025;28;20044;-46
2021/04/28 10:55:02;;;;;;;21.42;10.85;;;33.60;25.80;;;;;;5028116;28;20158;-49
2021/04/28 10:57:37;;;;;;;14.15;10.05;;;33.20;25.60;;;;;;5027432;28;20025;-48
2021/04/28 11:00:20;;;;;;;11.20;9.38;;;33.30;25.30;;;;;;5028609;28;20026;-47
2021/04/28 11:02:47;;;;;;;12.80;9.38;;;32.10;25.80;;;;;;5027984;28;20483;-49
2021/04/28 11:05:30;;;;;;;13.50;9.75;;;32.10;26.70;;;;;;5026912;28;20032;-47
2021/04/28 11:08:00;;;;;;;17.95;9.70;;;32.60;26.00;;;;;;5026042;28;20415;-48
2021/04/28 11:10:29;;;;;;;;;;;32.60;25.90;;;;;;5029427;28;20056;-47
2021/04/28 11:13:17;;;;;;;14.57;10.25;;;33.30;25.40;;;;;;5026150;28;20019;-47
2021/04/28 11:15:53;;;;;;;15.02;9.15;;;33.20;25.80;;;;;;5026952;28;20107;-46
2021/04/28 11:18:32;;;;;;;15.73;10.60;;;33.10;25.70;;;;;;5027324;28;20029;-46
2021/04/28 11:21:17;;;;;;;12.60;9.07;;;33.10;25.60;;;;;;5026390;28;20052;-46
2021/04/28 11:24:08;;;;;;;17.85;10.43;;;32.50;25.30;;;;;;5027152;28;20022;-46
2021/04/28 11:26:38;;;;;;;12.00;9.70;;;32.40;26.20;;;;;;5028195;28;20083;-47
2021/04/28 11:29:06;;;;;;;12.38;10.07;;;32.10;26.30;;;;;;5027396;28;20040;-47
2021/04/28 11:31:42;;;;;;;11.93;8.95;;;32.30;25.80;;;;;;5028150;28;20033;-46
2021/04/28 11:34:26;;;;;;;14.88;9.85;;;32.40;26.10;;;;;;5026926;28;20372;-47
2021/04/28 11:36:54;;;;;;;16.05;9.18;;;30.50;25.80;;;;;;5027875;28;20021;-46
2021/04/28 11:39:41;;;;;;;14.25;8.70;;;28.30;26.10;;;;;;5025393;28;20033;-46
2021/04/28 11:42:07;;;;;;;11.85;8.27;;;29.80;26.30;;;;;;5024584;28;20072;-47
2021/04/28 11:44:32;;;;;;;10.45;7.70;;;27.80;27.00;;;;;;5027557;28;20389;-48
2021/04/28 11:47:21;;;;;;;15.13;8.75;;;28.80;26.80;;;;;;5026712;28;20090;-48
2021/04/28 11:49:49;;;;;;;12.18;8.88;;;29.00;27.10;;;;;;5025080;28;20033;-47
2021/04/28 11:52:17;;;;;;;13.82;9.52;;;29.60;26.20;;;;;;5026636;28;20021;-47
2021/04/28 11:54:44;;;;;;;12.05;8.00;;;30.10;25.50;;;;;;5026791;28;20026;-47
2021/04/28 11:57:10;;;;;;;9.73;7.78;;;28.90;27.10;;;;;;5027515;28;20483;-47
2021/04/28 11:59:36;;;;;;;12.63;9.50;;;29.90;26.10;;;;;;5027047;28;20067;-48
2021/04/28 12:02:10;;;;;;;14.20;9.05;;;27.80;26.00;;;;;;5027738;28;20108;-47
2021/04/28 12:04:45;;;;;;;15.90;8.73;;;26.80;27.80;;;;;;5027444;28;20095;-47
2021/04/28 12:07:14;;;;;;;15.85;8.63;;;26.90;29.10;;;;;;5028135;28;20164;-47
2021/04/28 12:09:50;;;;;;;16.33;9.57;;;27.60;27.80;;;;;;5027537;28;20517;-47
2021/04/28 12:12:25;;;;;;;15.45;9.70;;;27.00;27.70;;;;;;5027936;28;20014;-47
2021/04/28 12:15:10;;;;;;;14.23;9.02;;;27.10;29.30;;;;;;5025313;28;20017;-46
2021/04/28 12:17:40;;;;;;;15.85;8.60;;;26.70;30.00;;;;;;5025397;28;20036;-46
2021/04/28 12:20:10;;;;;;;14.30;8.57;;;26.60;28.70;;;;;;5025435;28;20025;-48
2021/04/28 12:22:36;;;;;;;16.38;9.07;;;26.30;28.50;;;;;;5027351;28;20040;-46
2021/04/28 12:25:05;;;;;;;14.90;10.48;;;26.10;29.10;;;;;;5023772;28;20033;-46
2021/04/28 12:27:32;;;;;;;10.77;8.75;;;25.60;28.20;;;;;;5025771;28;20037;-46
2021/04/28 12:30:00;;;;;;;15.35;9.70;;;25.00;29.70;;;;;;5025934;28;20037;-48
2021/04/28 12:32:40;;;;;;;14.50;9.20;;;25.30;29.80;;;;;;5026764;28;20057;-46
2021/04/28 12:35:32;;;;;;;11.80;8.50;;;25.40;31.10;;;;;;5023972;28;20288;-46
2021/04/28 12:38:13;;;;;;;15.18;10.18;;;25.60;30.00;;;;;;5026035;28;20104;-46
2021/04/28 12:40:38;;;;;;;;;;;24.60;29.30;;;;;;5025145;28;20021;-46
2021/04/28 12:43:07;;;;;;;15.18;9.52;;;24.50;31.40;;;;;;5027442;28;20359;-46
2021/04/28 12:45:33;;;;;;;13.38;9.95;;;24.90;31.70;;;;;;5027552;28;20022;-46
2021/04/28 12:48:25;;;;;;;15.05;8.93;;;25.10;31.30;;;;;;5027704;28;20168;-47
2021/04/28 12:50:51;;;;;;;12.38;9.18;;;25.00;31.60;;;;;;5027075;28;20073;-46